sensor_id;sensor_type;location;lat;lon;timestamp;temperature;humidity
67586;SHT31;55785;47.946;20.540;2023-07-16T00:00:04;18.53;82.20
67586;SHT31;55785;47.946;20.540;2023-07-16T00:02:29;18.51;81.97
67586;SHT31;55785;47.946;20.540;2023-07-16T00:04:55;18.53;81.95
67586;SHT31;55785;47.946;20.540;2023-07-16T00:07:20;18.48;81.93
67586;SHT31;55785;47.946;20.540;2023-07-16T00:09:45;18.45;82.01
67586;SHT31;55785;47.946;20.540;2023-07-16T00:12:11;18.41;82.04
67586;SHT31;55785;47.946;20.540;2023-07-16T00:14:36;18.44;81.94
67586;SHT31;55785;47.946;20.540;2023-07-16T00:17:01;18.43;81.58
67586;SHT31;55785;47.946;20.540;2023-07-16T00:19:27;18.43;81.73
67586;SHT31;55785;47.946;20.540;2023-07-16T00:21:52;18.44;81.50
67586;SHT31;55785;47.946;20.540;2023-07-16T00:24:17;18.38;81.59
67586;SHT31;55785;47.946;20.540;2023-07-16T00:26:43;18.40;81.65
67586;SHT31;55785;47.946;20.540;2023-07-16T00:29:09;18.36;81.75
67586;SHT31;55785;47.946;20.540;2023-07-16T00:31:34;18.27;81.83
67586;SHT31;55785;47.946;20.540;2023-07-16T00:33:59;18.23;82.02
67586;SHT31;55785;47.946;20.540;2023-07-16T00:36:25;18.17;81.94
67586;SHT31;55785;47.946;20.540;2023-07-16T00:38:50;18.17;82.10
67586;SHT31;55785;47.946;20.540;2023-07-16T00:41:16;18.14;82.15
67586;SHT31;55785;47.946;20.540;2023-07-16T00:43:41;18.13;82.10
67586;SHT31;55785;47.946;20.540;2023-07-16T00:46:08;18.10;81.83
67586;SHT31;55785;47.946;20.540;2023-07-16T00:48:34;18.10;82.00
67586;SHT31;55785;47.946;20.540;2023-07-16T00:51:01;18.06;81.75
67586;SHT31;55785;47.946;20.540;2023-07-16T00:53:28;18.09;81.88
67586;SHT31;55785;47.946;20.540;2023-07-16T00:55:54;18.10;81.52
67586;SHT31;55785;47.946;20.540;2023-07-16T00:58:19;18.10;81.58
67586;SHT31;55785;47.946;20.540;2023-07-16T01:00:44;18.09;81.54
67586;SHT31;55785;47.946;20.540;2023-07-16T01:03:11;18.06;81.51
67586;SHT31;55785;47.946;20.540;2023-07-16T01:05:44;18.05;81.55
67586;SHT31;55785;47.946;20.540;2023-07-16T01:08:11;18.05;81.45
67586;SHT31;55785;47.946;20.540;2023-07-16T01:10:38;18.02;81.61
67586;SHT31;55785;47.946;20.540;2023-07-16T01:13:04;17.99;81.50
67586;SHT31;55785;47.946;20.540;2023-07-16T01:15:29;17.93;81.61
67586;SHT31;55785;47.946;20.540;2023-07-16T01:17:55;17.90;81.73
67586;SHT31;55785;47.946;20.540;2023-07-16T01:20:20;17.86;81.86
67586;SHT31;55785;47.946;20.540;2023-07-16T01:26:08;17.92;81.58
67586;SHT31;55785;47.946;20.540;2023-07-16T01:31:40;17.93;81.66
67586;SHT31;55785;47.946;20.540;2023-07-16T01:34:06;17.90;81.36
67586;SHT31;55785;47.946;20.540;2023-07-16T01:36:33;17.89;81.48
67586;SHT31;55785;47.946;20.540;2023-07-16T01:38:59;17.90;81.39
67586;SHT31;55785;47.946;20.540;2023-07-16T01:41:25;17.89;81.33
67586;SHT31;55785;47.946;20.540;2023-07-16T01:43:50;17.89;81.50
67586;SHT31;55785;47.946;20.540;2023-07-16T01:46:16;17.85;81.46
67586;SHT31;55785;47.946;20.540;2023-07-16T01:48:41;17.83;81.25
67586;SHT31;55785;47.946;20.540;2023-07-16T01:51:07;17.82;81.25
67586;SHT31;55785;47.946;20.540;2023-07-16T01:53:32;17.83;81.29
67586;SHT31;55785;47.946;20.540;2023-07-16T01:55:58;17.83;81.19
67586;SHT31;55785;47.946;20.540;2023-07-16T01:58:23;17.81;81.26
67586;SHT31;55785;47.946;20.540;2023-07-16T02:00:50;17.78;81.52
67586;SHT31;55785;47.946;20.540;2023-07-16T02:03:16;17.72;81.48
67586;SHT31;55785;47.946;20.540;2023-07-16T02:05:41;17.69;81.52
67586;SHT31;55785;47.946;20.540;2023-07-16T02:08:06;17.69;81.41
67586;SHT31;55785;47.946;20.540;2023-07-16T02:10:32;17.71;81.44
67586;SHT31;55785;47.946;20.540;2023-07-16T02:12:57;17.68;81.37
67586;SHT31;55785;47.946;20.540;2023-07-16T02:15:23;17.72;81.21
67586;SHT31;55785;47.946;20.540;2023-07-16T02:17:48;17.72;81.22
67586;SHT31;55785;47.946;20.540;2023-07-16T02:20:13;17.72;81.13
67586;SHT31;55785;47.946;20.540;2023-07-16T02:22:39;17.72;81.21
67586;SHT31;55785;47.946;20.540;2023-07-16T02:25:05;17.68;81.30
67586;SHT31;55785;47.946;20.540;2023-07-16T02:27:30;17.65;81.21
67586;SHT31;55785;47.946;20.540;2023-07-16T02:29:56;17.64;81.29
67586;SHT31;55785;47.946;20.540;2023-07-16T02:32:21;17.64;81.20
67586;SHT31;55785;47.946;20.540;2023-07-16T02:34:47;17.64;81.35
67586;SHT31;55785;47.946;20.540;2023-07-16T02:37:12;17.65;81.36
67586;SHT31;55785;47.946;20.540;2023-07-16T02:39:45;17.59;81.33
67586;SHT31;55785;47.946;20.540;2023-07-16T02:42:10;17.58;81.36
67586;SHT31;55785;47.946;20.540;2023-07-16T02:44:36;17.57;81.47
67586;SHT31;55785;47.946;20.540;2023-07-16T02:47:01;17.52;81.43
67586;SHT31;55785;47.946;20.540;2023-07-16T02:49:26;17.44;81.87
67586;SHT31;55785;47.946;20.540;2023-07-16T02:51:52;17.41;82.13
67586;SHT31;55785;47.946;20.540;2023-07-16T02:54:17;17.35;81.93
67586;SHT31;55785;47.946;20.540;2023-07-16T02:56:42;17.38;81.96
67586;SHT31;55785;47.946;20.540;2023-07-16T02:59:08;17.38;81.88
67586;SHT31;55785;47.946;20.540;2023-07-16T03:01:33;17.42;81.84
67586;SHT31;55785;47.946;20.540;2023-07-16T03:03:59;17.44;81.77
67586;SHT31;55785;47.946;20.540;2023-07-16T03:06:24;17.42;81.55
67586;SHT31;55785;47.946;20.540;2023-07-16T03:08:49;17.44;81.40
67586;SHT31;55785;47.946;20.540;2023-07-16T03:11:15;17.47;81.28
67586;SHT31;55785;47.946;20.540;2023-07-16T03:13:40;17.49;81.33
67586;SHT31;55785;47.946;20.540;2023-07-16T03:16:06;17.48;81.28
67586;SHT31;55785;47.946;20.540;2023-07-16T03:18:31;17.47;81.25
67586;SHT31;55785;47.946;20.540;2023-07-16T03:20:57;17.47;81.26
67586;SHT31;55785;47.946;20.540;2023-07-16T03:23:23;17.47;81.36
67586;SHT31;55785;47.946;20.540;2023-07-16T03:25:49;17.49;81.42
67586;SHT31;55785;47.946;20.540;2023-07-16T03:28:15;17.45;81.59
67586;SHT31;55785;47.946;20.540;2023-07-16T03:30:45;17.47;81.54
67586;SHT31;55785;47.946;20.540;2023-07-16T03:33:11;17.47;81.45
67586;SHT31;55785;47.946;20.540;2023-07-16T03:35:36;17.49;81.43
67586;SHT31;55785;47.946;20.540;2023-07-16T03:38:02;17.52;81.36
67586;SHT31;55785;47.946;20.540;2023-07-16T03:40:27;17.51;81.33
67586;SHT31;55785;47.946;20.540;2023-07-16T03:42:53;17.57;81.11
67586;SHT31;55785;47.946;20.540;2023-07-16T03:45:18;17.65;81.32
67586;SHT31;55785;47.946;20.540;2023-07-16T03:47:44;17.71;80.61
67586;SHT31;55785;47.946;20.540;2023-07-16T03:50:09;17.75;81.26
67586;SHT31;55785;47.946;20.540;2023-07-16T03:52:35;17.82;81.14
67586;SHT31;55785;47.946;20.540;2023-07-16T03:55:00;17.83;81.53
67586;SHT31;55785;47.946;20.540;2023-07-16T03:57:28;17.85;81.46
67586;SHT31;55785;47.946;20.540;2023-07-16T03:59:53;17.90;80.70
67586;SHT31;55785;47.946;20.540;2023-07-16T04:02:18;17.99;80.81
67586;SHT31;55785;47.946;20.540;2023-07-16T04:04:44;18.13;80.76
67586;SHT31;55785;47.946;20.540;2023-07-16T04:07:09;18.24;80.47
67586;SHT31;55785;47.946;20.540;2023-07-16T04:09:37;18.30;79.67
67586;SHT31;55785;47.946;20.540;2023-07-16T04:12:03;18.38;79.86
67586;SHT31;55785;47.946;20.540;2023-07-16T04:14:28;18.50;79.87
67586;SHT31;55785;47.946;20.540;2023-07-16T04:16:54;18.55;79.35
67586;SHT31;55785;47.946;20.540;2023-07-16T04:19:19;18.68;79.71
67586;SHT31;55785;47.946;20.540;2023-07-16T04:21:44;18.79;79.50
67586;SHT31;55785;47.946;20.540;2023-07-16T04:24:10;18.87;79.56
67586;SHT31;55785;47.946;20.540;2023-07-16T04:26:35;18.94;79.63
67586;SHT31;55785;47.946;20.540;2023-07-16T04:29:00;18.98;79.49
67586;SHT31;55785;47.946;20.540;2023-07-16T04:31:26;19.11;79.84
67586;SHT31;55785;47.946;20.540;2023-07-16T04:33:51;19.23;78.91
67586;SHT31;55785;47.946;20.540;2023-07-16T04:36:16;19.34;78.69
67586;SHT31;55785;47.946;20.540;2023-07-16T04:38:42;19.46;77.17
67586;SHT31;55785;47.946;20.540;2023-07-16T04:41:07;19.54;77.90
67586;SHT31;55785;47.946;20.540;2023-07-16T04:43:32;19.64;78.26
67586;SHT31;55785;47.946;20.540;2023-07-16T04:45:58;19.77;78.48
67586;SHT31;55785;47.946;20.540;2023-07-16T04:48:23;19.85;77.95
67586;SHT31;55785;47.946;20.540;2023-07-16T04:50:50;19.98;77.91
67586;SHT31;55785;47.946;20.540;2023-07-16T04:53:16;20.18;76.92
67586;SHT31;55785;47.946;20.540;2023-07-16T04:55:41;20.33;76.13
67586;SHT31;55785;47.946;20.540;2023-07-16T04:58:06;20.45;76.84
67586;SHT31;55785;47.946;20.540;2023-07-16T05:00:32;20.52;77.12
67586;SHT31;55785;47.946;20.540;2023-07-16T05:02:58;20.62;76.72
67586;SHT31;55785;47.946;20.540;2023-07-16T05:05:23;20.73;76.14
67586;SHT31;55785;47.946;20.540;2023-07-16T05:07:48;20.88;75.94
67586;SHT31;55785;47.946;20.540;2023-07-16T05:10:14;21.03;75.65
67586;SHT31;55785;47.946;20.540;2023-07-16T05:12:39;21.17;75.64
67586;SHT31;55785;47.946;20.540;2023-07-16T05:15:05;21.31;74.00
67586;SHT31;55785;47.946;20.540;2023-07-16T05:17:31;21.46;74.99
67586;SHT31;55785;47.946;20.540;2023-07-16T05:19:56;21.61;75.13
67586;SHT31;55785;47.946;20.540;2023-07-16T05:22:21;21.71;76.60
67586;SHT31;55785;47.946;20.540;2023-07-16T05:24:47;21.85;75.94
67586;SHT31;55785;47.946;20.540;2023-07-16T05:27:12;21.97;75.30
67586;SHT31;55785;47.946;20.540;2023-07-16T05:29:37;22.04;74.98
67586;SHT31;55785;47.946;20.540;2023-07-16T05:32:03;22.14;76.03
67586;SHT31;55785;47.946;20.540;2023-07-16T05:34:29;22.23;74.68
67586;SHT31;55785;47.946;20.540;2023-07-16T05:36:54;22.39;74.96
67586;SHT31;55785;47.946;20.540;2023-07-16T05:39:21;22.54;74.51
67586;SHT31;55785;47.946;20.540;2023-07-16T05:41:46;22.67;74.60
67586;SHT31;55785;47.946;20.540;2023-07-16T05:44:12;22.71;73.66
67586;SHT31;55785;47.946;20.540;2023-07-16T05:46:37;22.76;73.83
67586;SHT31;55785;47.946;20.540;2023-07-16T05:49:02;22.91;75.36
67586;SHT31;55785;47.946;20.540;2023-07-16T05:51:28;23.13;74.05
67586;SHT31;55785;47.946;20.540;2023-07-16T05:53:53;23.26;73.87
67586;SHT31;55785;47.946;20.540;2023-07-16T05:56:20;23.33;74.72
67586;SHT31;55785;47.946;20.540;2023-07-16T05:58:45;23.49;72.36
67586;SHT31;55785;47.946;20.540;2023-07-16T06:01:11;23.54;73.36
67586;SHT31;55785;47.946;20.540;2023-07-16T06:03:36;23.63;72.61
67586;SHT31;55785;47.946;20.540;2023-07-16T06:06:01;23.74;72.16
67586;SHT31;55785;47.946;20.540;2023-07-16T06:08:27;23.93;72.97
67586;SHT31;55785;47.946;20.540;2023-07-16T06:10:52;24.19;73.45
67586;SHT31;55785;47.946;20.540;2023-07-16T06:13:17;24.30;70.86
67586;SHT31;55785;47.946;20.540;2023-07-16T06:15:43;24.39;69.08
67586;SHT31;55785;47.946;20.540;2023-07-16T06:18:09;24.55;69.64
67586;SHT31;55785;47.946;20.540;2023-07-16T06:20:34;24.69;70.57
67586;SHT31;55785;47.946;20.540;2023-07-16T06:23:00;24.87;66.34
67586;SHT31;55785;47.946;20.540;2023-07-16T06:25:25;25.00;68.30
67586;SHT31;55785;47.946;20.540;2023-07-16T06:27:50;25.03;65.02
67586;SHT31;55785;47.946;20.540;2023-07-16T06:30:16;25.17;65.85
67586;SHT31;55785;47.946;20.540;2023-07-16T06:32:41;25.15;65.78
67586;SHT31;55785;47.946;20.540;2023-07-16T06:35:08;25.00;63.46
67586;SHT31;55785;47.946;20.540;2023-07-16T06:37:33;25.01;65.64
67586;SHT31;55785;47.946;20.540;2023-07-16T06:39:58;25.06;66.22
67586;SHT31;55785;47.946;20.540;2023-07-16T06:42:24;25.20;67.63
67586;SHT31;55785;47.946;20.540;2023-07-16T06:44:49;25.28;65.89
67586;SHT31;55785;47.946;20.540;2023-07-16T06:47:14;25.49;65.99
67586;SHT31;55785;47.946;20.540;2023-07-16T06:49:40;25.66;65.97
67586;SHT31;55785;47.946;20.540;2023-07-16T06:52:06;25.72;62.01
67586;SHT31;55785;47.946;20.540;2023-07-16T06:54:31;25.69;60.95
67586;SHT31;55785;47.946;20.540;2023-07-16T06:56:56;25.58;61.62
67586;SHT31;55785;47.946;20.540;2023-07-16T06:59:22;25.49;61.38
67586;SHT31;55785;47.946;20.540;2023-07-16T07:01:47;25.57;63.65
67586;SHT31;55785;47.946;20.540;2023-07-16T07:04:12;25.78;61.04
67586;SHT31;55785;47.946;20.540;2023-07-16T07:06:38;25.90;60.60
67586;SHT31;55785;47.946;20.540;2023-07-16T07:09:03;25.99;60.94
67586;SHT31;55785;47.946;20.540;2023-07-16T07:11:29;26.04;61.57
67586;SHT31;55785;47.946;20.540;2023-07-16T07:13:54;26.04;62.54
67586;SHT31;55785;47.946;20.540;2023-07-16T07:16:19;26.10;60.60
67586;SHT31;55785;47.946;20.540;2023-07-16T07:18:45;26.16;61.42
67586;SHT31;55785;47.946;20.540;2023-07-16T07:21:10;26.21;63.89
67586;SHT31;55785;47.946;20.540;2023-07-16T07:23:36;26.26;61.43
67586;SHT31;55785;47.946;20.540;2023-07-16T07:26:01;26.34;61.95
67586;SHT31;55785;47.946;20.540;2023-07-16T07:28:27;26.38;62.69
67586;SHT31;55785;47.946;20.540;2023-07-16T07:30:52;26.51;57.22
67586;SHT31;55785;47.946;20.540;2023-07-16T07:33:18;26.58;57.64
67586;SHT31;55785;47.946;20.540;2023-07-16T07:35:43;26.55;60.10
67586;SHT31;55785;47.946;20.540;2023-07-16T07:38:08;26.55;58.95
67586;SHT31;55785;47.946;20.540;2023-07-16T07:40:34;26.55;59.15
67586;SHT31;55785;47.946;20.540;2023-07-16T07:42:59;26.58;60.38
67586;SHT31;55785;47.946;20.540;2023-07-16T07:45:25;26.62;60.73
67586;SHT31;55785;47.946;20.540;2023-07-16T07:47:50;26.68;60.19
67586;SHT31;55785;47.946;20.540;2023-07-16T07:50:16;26.75;60.44
67586;SHT31;55785;47.946;20.540;2023-07-16T07:52:41;26.84;61.25
67586;SHT31;55785;47.946;20.540;2023-07-16T07:55:07;26.93;60.37
67586;SHT31;55785;47.946;20.540;2023-07-16T07:57:32;26.98;60.01
67586;SHT31;55785;47.946;20.540;2023-07-16T07:59:57;27.03;60.91
67586;SHT31;55785;47.946;20.540;2023-07-16T08:02:23;27.12;60.83
67586;SHT31;55785;47.946;20.540;2023-07-16T08:04:55;27.22;58.17
67586;SHT31;55785;47.946;20.540;2023-07-16T08:07:24;27.22;58.72
67586;SHT31;55785;47.946;20.540;2023-07-16T08:09:49;27.30;58.87
67586;SHT31;55785;47.946;20.540;2023-07-16T08:12:14;27.36;59.21
67586;SHT31;55785;47.946;20.540;2023-07-16T08:14:40;27.43;59.38
67586;SHT31;55785;47.946;20.540;2023-07-16T08:17:05;27.53;60.64
67586;SHT31;55785;47.946;20.540;2023-07-16T08:19:31;27.60;60.02
67586;SHT31;55785;47.946;20.540;2023-07-16T08:21:56;27.68;61.90
67586;SHT31;55785;47.946;20.540;2023-07-16T08:24:22;27.82;57.26
67586;SHT31;55785;47.946;20.540;2023-07-16T08:26:47;27.97;59.90
67586;SHT31;55785;47.946;20.540;2023-07-16T08:29:12;27.97;57.34
67586;SHT31;55785;47.946;20.540;2023-07-16T08:31:38;27.99;58.63
67586;SHT31;55785;47.946;20.540;2023-07-16T08:34:03;28.16;55.59
67586;SHT31;55785;47.946;20.540;2023-07-16T08:36:28;28.38;56.71
67586;SHT31;55785;47.946;20.540;2023-07-16T08:38:54;28.42;60.84
67586;SHT31;55785;47.946;20.540;2023-07-16T08:41:19;28.67;60.32
67586;SHT31;55785;47.946;20.540;2023-07-16T08:43:46;28.77;58.67
67586;SHT31;55785;47.946;20.540;2023-07-16T08:46:11;28.84;60.08
67586;SHT31;55785;47.946;20.540;2023-07-16T08:48:37;28.91;56.44
67586;SHT31;55785;47.946;20.540;2023-07-16T08:51:02;28.87;57.62
67586;SHT31;55785;47.946;20.540;2023-07-16T08:53:29;28.88;62.50
67586;SHT31;55785;47.946;20.540;2023-07-16T08:55:55;29.04;58.97
67586;SHT31;55785;47.946;20.540;2023-07-16T08:58:23;29.19;57.55
67586;SHT31;55785;47.946;20.540;2023-07-16T09:00:48;29.36;58.56
67586;SHT31;55785;47.946;20.540;2023-07-16T09:03:14;29.55;60.69
67586;SHT31;55785;47.946;20.540;2023-07-16T09:05:40;29.62;56.21
67586;SHT31;55785;47.946;20.540;2023-07-16T09:08:05;29.73;57.65
67586;SHT31;55785;47.946;20.540;2023-07-16T09:10:30;29.79;57.59
67586;SHT31;55785;47.946;20.540;2023-07-16T09:12:58;29.86;54.62
67586;SHT31;55785;47.946;20.540;2023-07-16T09:15:23;29.82;52.92
67586;SHT31;55785;47.946;20.540;2023-07-16T09:17:49;29.75;56.90
67586;SHT31;55785;47.946;20.540;2023-07-16T09:20:16;29.69;57.15
67586;SHT31;55785;47.946;20.540;2023-07-16T09:22:41;29.65;56.04
67586;SHT31;55785;47.946;20.540;2023-07-16T09:25:07;29.89;54.91
67586;SHT31;55785;47.946;20.540;2023-07-16T09:27:33;29.96;53.86
67586;SHT31;55785;47.946;20.540;2023-07-16T09:29:58;29.89;55.55
67586;SHT31;55785;47.946;20.540;2023-07-16T09:32:35;29.67;53.62
67586;SHT31;55785;47.946;20.540;2023-07-16T09:35:01;29.79;55.03
67586;SHT31;55785;47.946;20.540;2023-07-16T09:37:27;29.84;54.14
67586;SHT31;55785;47.946;20.540;2023-07-16T09:39:53;30.00;55.34
67586;SHT31;55785;47.946;20.540;2023-07-16T09:42:19;30.18;56.65
67586;SHT31;55785;47.946;20.540;2023-07-16T09:44:45;30.14;54.03
67586;SHT31;55785;47.946;20.540;2023-07-16T09:47:11;30.27;52.48
67586;SHT31;55785;47.946;20.540;2023-07-16T09:49:36;30.37;52.63
67586;SHT31;55785;47.946;20.540;2023-07-16T09:52:02;30.31;51.10
67586;SHT31;55785;47.946;20.540;2023-07-16T09:54:32;30.38;53.75
67586;SHT31;55785;47.946;20.540;2023-07-16T09:56:58;30.51;54.55
67586;SHT31;55785;47.946;20.540;2023-07-16T09:59:30;30.51;53.11
67586;SHT31;55785;47.946;20.540;2023-07-16T10:01:56;30.44;54.05
67586;SHT31;55785;47.946;20.540;2023-07-16T10:04:22;30.37;48.71
67586;SHT31;55785;47.946;20.540;2023-07-16T10:07:00;30.37;51.15
67586;SHT31;55785;47.946;20.540;2023-07-16T10:09:50;30.62;48.66
67586;SHT31;55785;47.946;20.540;2023-07-16T10:12:17;30.86;54.53
67586;SHT31;55785;47.946;20.540;2023-07-16T10:14:48;31.08;53.55
67586;SHT31;55785;47.946;20.540;2023-07-16T10:19:57;30.92;50.85
67586;SHT31;55785;47.946;20.540;2023-07-16T10:25:00;30.90;50.11
67586;SHT31;55785;47.946;20.540;2023-07-16T10:27:30;30.98;52.93
67586;SHT31;55785;47.946;20.540;2023-07-16T10:29:55;31.10;51.65
67586;SHT31;55785;47.946;20.540;2023-07-16T10:32:21;31.26;54.02
67586;SHT31;55785;47.946;20.540;2023-07-16T10:34:46;31.36;51.12
67586;SHT31;55785;47.946;20.540;2023-07-16T10:37:12;31.56;50.97
67586;SHT31;55785;47.946;20.540;2023-07-16T10:39:46;31.73;46.06
67586;SHT31;55785;47.946;20.540;2023-07-16T10:42:12;31.85;49.67
67586;SHT31;55785;47.946;20.540;2023-07-16T10:44:39;31.88;50.44
67586;SHT31;55785;47.946;20.540;2023-07-16T10:47:05;31.92;49.32
67586;SHT31;55785;47.946;20.540;2023-07-16T10:49:31;31.96;53.47
67586;SHT31;55785;47.946;20.540;2023-07-16T10:51:59;31.98;48.88
67586;SHT31;55785;47.946;20.540;2023-07-16T10:54:25;31.94;49.99
67586;SHT31;55785;47.946;20.540;2023-07-16T10:56:50;31.99;49.39
67586;SHT31;55785;47.946;20.540;2023-07-16T10:59:16;31.81;49.16
67586;SHT31;55785;47.946;20.540;2023-07-16T11:01:41;31.54;50.17
67586;SHT31;55785;47.946;20.540;2023-07-16T11:04:07;31.41;46.02
67586;SHT31;55785;47.946;20.540;2023-07-16T11:06:33;31.61;46.46
67586;SHT31;55785;47.946;20.540;2023-07-16T11:09:11;31.84;46.05
67586;SHT31;55785;47.946;20.540;2023-07-16T11:11:38;31.82;43.97
67586;SHT31;55785;47.946;20.540;2023-07-16T11:14:05;31.98;45.50
67586;SHT31;55785;47.946;20.540;2023-07-16T11:16:37;32.14;43.66
67586;SHT31;55785;47.946;20.540;2023-07-16T11:19:06;32.35;45.39
67586;SHT31;55785;47.946;20.540;2023-07-16T11:21:36;32.45;47.41
67586;SHT31;55785;47.946;20.540;2023-07-16T11:24:12;32.72;46.73
67586;SHT31;55785;47.946;20.540;2023-07-16T11:26:38;32.74;42.46
67586;SHT31;55785;47.946;20.540;2023-07-16T11:29:13;32.81;44.20
67586;SHT31;55785;47.946;20.540;2023-07-16T11:31:39;32.76;42.02
67586;SHT31;55785;47.946;20.540;2023-07-16T11:34:04;32.70;40.20
67586;SHT31;55785;47.946;20.540;2023-07-16T11:36:30;32.57;42.28
67586;SHT31;55785;47.946;20.540;2023-07-16T11:38:55;32.56;42.53
67586;SHT31;55785;47.946;20.540;2023-07-16T11:41:21;32.56;41.98
67586;SHT31;55785;47.946;20.540;2023-07-16T11:43:46;32.69;43.80
67586;SHT31;55785;47.946;20.540;2023-07-16T11:46:16;32.90;43.14
67586;SHT31;55785;47.946;20.540;2023-07-16T11:48:43;33.10;42.82
67586;SHT31;55785;47.946;20.540;2023-07-16T11:51:08;33.27;41.71
67586;SHT31;55785;47.946;20.540;2023-07-16T11:53:34;33.49;42.16
67586;SHT31;55785;47.946;20.540;2023-07-16T11:55:59;33.57;43.54
67586;SHT31;55785;47.946;20.540;2023-07-16T11:58:24;33.73;41.67
67586;SHT31;55785;47.946;20.540;2023-07-16T12:00:50;33.89;41.66
67586;SHT31;55785;47.946;20.540;2023-07-16T12:03:15;33.88;42.97
67586;SHT31;55785;47.946;20.540;2023-07-16T12:05:41;33.85;42.52
67586;SHT31;55785;47.946;20.540;2023-07-16T12:08:06;33.92;41.65
67586;SHT31;55785;47.946;20.540;2023-07-16T12:10:31;33.85;39.95
67586;SHT31;55785;47.946;20.540;2023-07-16T12:12:57;33.95;40.49
67586;SHT31;55785;47.946;20.540;2023-07-16T12:15:22;34.10;39.11
67586;SHT31;55785;47.946;20.540;2023-07-16T12:17:47;34.19;39.81
67586;SHT31;55785;47.946;20.540;2023-07-16T12:20:13;34.33;40.04
67586;SHT31;55785;47.946;20.540;2023-07-16T12:22:38;34.28;39.62
67586;SHT31;55785;47.946;20.540;2023-07-16T12:25:04;34.40;39.24
67586;SHT31;55785;47.946;20.540;2023-07-16T12:27:29;34.61;40.28
67586;SHT31;55785;47.946;20.540;2023-07-16T12:29:55;34.48;38.08
67586;SHT31;55785;47.946;20.540;2023-07-16T12:32:20;34.53;40.39
67586;SHT31;55785;47.946;20.540;2023-07-16T12:34:45;34.27;41.61
67586;SHT31;55785;47.946;20.540;2023-07-16T12:37:11;34.43;42.10
67586;SHT31;55785;47.946;20.540;2023-07-16T12:39:36;34.15;39.94
67586;SHT31;55785;47.946;20.540;2023-07-16T12:42:01;33.97;37.91
67586;SHT31;55785;47.946;20.540;2023-07-16T12:44:27;34.23;40.82
67586;SHT31;55785;47.946;20.540;2023-07-16T12:46:52;34.44;41.34
67586;SHT31;55785;47.946;20.540;2023-07-16T12:49:18;34.51;43.10
67586;SHT31;55785;47.946;20.540;2023-07-16T12:51:44;34.54;38.61
67586;SHT31;55785;47.946;20.540;2023-07-16T12:54:09;34.68;40.47
67586;SHT31;55785;47.946;20.540;2023-07-16T12:56:34;34.58;37.16
67586;SHT31;55785;47.946;20.540;2023-07-16T12:59:00;34.78;39.22
67586;SHT31;55785;47.946;20.540;2023-07-16T13:01:25;34.75;38.16
67586;SHT31;55785;47.946;20.540;2023-07-16T13:03:50;34.95;38.55
67586;SHT31;55785;47.946;20.540;2023-07-16T13:06:16;35.02;39.26
67586;SHT31;55785;47.946;20.540;2023-07-16T13:08:41;35.19;38.27
67586;SHT31;55785;47.946;20.540;2023-07-16T13:11:06;34.92;38.50
67586;SHT31;55785;47.946;20.540;2023-07-16T13:13:32;34.99;38.79
67586;SHT31;55785;47.946;20.540;2023-07-16T13:15:57;35.05;38.68
67586;SHT31;55785;47.946;20.540;2023-07-16T13:18:23;34.95;40.02
67586;SHT31;55785;47.946;20.540;2023-07-16T13:20:48;35.12;39.49
67586;SHT31;55785;47.946;20.540;2023-07-16T13:23:13;35.21;38.05
67586;SHT31;55785;47.946;20.540;2023-07-16T13:25:39;35.12;40.70
67586;SHT31;55785;47.946;20.540;2023-07-16T13:28:07;35.08;39.63
67586;SHT31;55785;47.946;20.540;2023-07-16T13:30:33;35.28;38.48
67586;SHT31;55785;47.946;20.540;2023-07-16T13:32:58;35.57;40.37
67586;SHT31;55785;47.946;20.540;2023-07-16T13:35:24;35.51;38.79
67586;SHT31;55785;47.946;20.540;2023-07-16T13:37:50;35.43;38.63
67586;SHT31;55785;47.946;20.540;2023-07-16T13:40:16;35.47;39.79
67586;SHT31;55785;47.946;20.540;2023-07-16T13:42:42;35.29;36.94
67586;SHT31;55785;47.946;20.540;2023-07-16T13:45:07;35.22;37.62
67586;SHT31;55785;47.946;20.540;2023-07-16T13:47:33;35.25;37.65
67586;SHT31;55785;47.946;20.540;2023-07-16T13:49:58;35.36;36.89
67586;SHT31;55785;47.946;20.540;2023-07-16T13:52:24;35.28;36.36
67586;SHT31;55785;47.946;20.540;2023-07-16T13:54:49;35.02;35.81
67586;SHT31;55785;47.946;20.540;2023-07-16T13:57:14;35.05;38.24
67586;SHT31;55785;47.946;20.540;2023-07-16T13:59:40;35.09;38.98
67586;SHT31;55785;47.946;20.540;2023-07-16T14:02:05;34.98;40.22
67586;SHT31;55785;47.946;20.540;2023-07-16T14:04:30;35.13;40.87
67586;SHT31;55785;47.946;20.540;2023-07-16T14:06:56;35.13;40.17
67586;SHT31;55785;47.946;20.540;2023-07-16T14:09:22;35.11;40.76
67586;SHT31;55785;47.946;20.540;2023-07-16T14:11:47;35.11;41.63
67586;SHT31;55785;47.946;20.540;2023-07-16T14:14:20;35.21;40.47
67586;SHT31;55785;47.946;20.540;2023-07-16T14:16:46;35.47;40.84
67586;SHT31;55785;47.946;20.540;2023-07-16T14:19:11;35.56;40.11
67586;SHT31;55785;47.946;20.540;2023-07-16T14:21:36;35.78;41.20
67586;SHT31;55785;47.946;20.540;2023-07-16T14:24:02;35.90;38.34
67586;SHT31;55785;47.946;20.540;2023-07-16T14:26:27;35.77;39.35
67586;SHT31;55785;47.946;20.540;2023-07-16T14:28:52;35.83;39.17
67586;SHT31;55785;47.946;20.540;2023-07-16T14:31:18;35.73;41.30
67586;SHT31;55785;47.946;20.540;2023-07-16T14:33:43;35.67;38.76
67586;SHT31;55785;47.946;20.540;2023-07-16T14:36:09;35.45;39.10
67586;SHT31;55785;47.946;20.540;2023-07-16T14:38:34;35.60;39.68
67586;SHT31;55785;47.946;20.540;2023-07-16T14:41:00;35.43;37.49
67586;SHT31;55785;47.946;20.540;2023-07-16T14:43:25;35.19;40.07
67586;SHT31;55785;47.946;20.540;2023-07-16T14:45:51;35.23;41.76
67586;SHT31;55785;47.946;20.540;2023-07-16T14:48:16;35.32;41.35
67586;SHT31;55785;47.946;20.540;2023-07-16T14:50:41;35.35;39.75
67586;SHT31;55785;47.946;20.540;2023-07-16T14:53:07;35.11;41.64
67586;SHT31;55785;47.946;20.540;2023-07-16T14:55:32;34.85;41.36
67586;SHT31;55785;47.946;20.540;2023-07-16T14:57:57;34.65;41.56
67586;SHT31;55785;47.946;20.540;2023-07-16T15:00:23;34.34;40.98
67586;SHT31;55785;47.946;20.540;2023-07-16T15:02:48;34.12;40.33
67586;SHT31;55785;47.946;20.540;2023-07-16T15:05:14;33.88;41.03
67586;SHT31;55785;47.946;20.540;2023-07-16T15:07:39;33.75;40.78
67586;SHT31;55785;47.946;20.540;2023-07-16T15:10:05;33.66;42.94
67586;SHT31;55785;47.946;20.540;2023-07-16T15:12:31;33.51;42.49
67586;SHT31;55785;47.946;20.540;2023-07-16T15:14:57;33.45;41.33
67586;SHT31;55785;47.946;20.540;2023-07-16T15:17:22;33.41;41.82